createdAt,value
2022-07-28T00:01:16.495Z,100462.44
2022-07-28T00:03:51.889Z,100458.91
2022-07-28T00:06:20.051Z,100466.22
2022-07-28T00:08:48.551Z,100461.81
2022-07-28T00:11:18.498Z,100464.72
2022-07-28T00:13:46.650Z,100468.25
2022-07-28T00:16:14.961Z,100463.84
2022-07-28T00:18:43.119Z,100463.84
2022-07-28T00:21:11.310Z,100468.44
2022-07-28T00:23:39.922Z,100468.44
2022-07-28T00:26:08.757Z,100464.91
2022-07-28T00:28:38.398Z,100462.19
2022-07-28T00:31:08.025Z,100459.47
2022-07-28T00:33:44.274Z,100458.78
2022-07-28T00:36:30.869Z,100452.03
2022-07-28T00:38:59.188Z,100450.75
2022-07-28T00:41:32.732Z,100448.41
2022-07-28T00:44:02.275Z,100446.75
2022-07-28T00:46:30.628Z,100451.50
2022-07-28T00:48:58.808Z,100442.72
2022-07-28T00:51:28.064Z,100441.41
2022-07-28T00:53:58.347Z,100438.38
2022-07-28T00:56:26.442Z,100439.13
2022-07-28T00:58:54.884Z,100435.28
2022-07-28T01:01:24.583Z,100428.34
2022-07-28T01:03:55.228Z,100432.28
2022-07-28T01:06:39.933Z,100432.66
2022-07-28T01:09:36.943Z,100431.00
2022-07-28T01:12:12.298Z,100423.00
2022-07-28T01:14:41.682Z,100424.06
2022-07-28T01:17:15.335Z,100422.56
2022-07-28T01:19:48.196Z,100412.91
2022-07-28T01:22:18.465Z,100421.22
2022-07-28T01:24:52.536Z,100414.13
2022-07-28T01:27:35.582Z,100424.13
2022-07-28T01:30:06.337Z,100420.59
2022-07-28T01:32:38.062Z,100419.09
2022-07-28T01:35:10.264Z,100417.75
2022-07-28T01:37:42.618Z,100419.81
2022-07-28T01:40:12.970Z,100406.78
2022-07-28T01:42:45.038Z,100406.34
2022-07-28T01:45:14.140Z,100409.44
2022-07-28T01:47:44.626Z,100399.78
2022-07-28T01:50:13.433Z,100402.50
2022-07-28T01:52:43.093Z,100396.22
2022-07-28T01:55:14.242Z,100392.84
2022-07-28T01:57:42.830Z,100391.34
2022-07-28T02:00:12.547Z,100395.25
2022-07-28T02:02:41.875Z,100391.06
2022-07-28T02:05:12.979Z,100393.94
2022-07-28T02:07:44.266Z,100390.56
2022-07-28T02:10:13.294Z,100386.72
2022-07-28T02:12:42.419Z,100387.94
2022-07-28T02:15:11.415Z,100378.13
2022-07-28T02:17:42.542Z,100379.16
2022-07-28T02:20:13.995Z,100372.00
2022-07-28T02:22:43.072Z,100379.50
2022-07-28T02:25:11.978Z,100382.19
2022-07-28T02:27:41.033Z,100381.88
2022-07-28T02:30:11.037Z,100369.53
2022-07-28T02:32:42.200Z,100364.31
2022-07-28T02:35:17.999Z,100370.75
2022-07-28T02:37:53.511Z,100364.66
2022-07-28T02:40:23.202Z,100361.13
2022-07-28T02:42:52.494Z,100357.56
2022-07-28T02:45:22.797Z,100357.09
2022-07-28T02:47:53.138Z,100356.91
2022-07-28T02:50:24.928Z,100349.16
2022-07-28T02:52:55.177Z,100353.91
2022-07-28T02:55:23.698Z,100353.25
2022-07-28T02:57:56.479Z,100348.19
2022-07-28T03:00:25.495Z,100354.31
2022-07-28T03:02:54.788Z,100347.25
2022-07-28T03:05:24.459Z,100344.69
2022-07-28T03:07:53.943Z,100339.63
2022-07-28T03:10:32.969Z,100345.22
2022-07-28T03:13:01.733Z,100346.28
2022-07-28T03:15:31.121Z,100349.69
2022-07-28T03:17:59.649Z,100340.53
2022-07-28T03:20:30.828Z,100337.16
2022-07-28T03:22:59.550Z,100339.88
2022-07-28T03:25:29.921Z,100336.50
2022-07-28T03:27:59.504Z,100341.09
2022-07-28T03:30:29.068Z,100343.78
2022-07-28T03:32:59.271Z,100332.78
2022-07-28T03:35:28.145Z,100345.28
2022-07-28T03:38:00.704Z,100345.47
2022-07-28T03:40:30.179Z,100344.63
2022-07-28T03:42:59.061Z,100340.22
2022-07-28T03:45:27.890Z,100342.47
2022-07-28T03:47:58.057Z,100339.25
2022-07-28T03:50:27.159Z,100333.38
2022-07-28T03:53:03.089Z,100338.28
2022-07-28T03:55:31.545Z,100343.25
2022-07-28T03:57:59.669Z,100343.06
2022-07-28T04:00:27.907Z,100342.88
2022-07-28T04:02:56.098Z,100343.06
2022-07-28T04:05:24.283Z,100343.72
2022-07-28T04:07:52.442Z,100339.34
2022-07-28T04:10:22.082Z,100342.03
2022-07-28T04:12:51.104Z,100345.78
2022-07-28T04:15:20.037Z,100344.91
2022-07-28T04:17:49.253Z,100345.78
2022-07-28T04:20:17.828Z,100344.91
2022-07-28T04:22:46.447Z,100344.06
2022-07-28T04:25:15.602Z,100342.38
2022-07-28T04:27:45.804Z,100341.91
2022-07-28T04:30:17.297Z,100336.84
2022-07-28T04:32:45.867Z,100331.94
2022-07-28T04:35:17.452Z,100342.97
2022-07-28T04:37:46.452Z,100336.41
2022-07-28T04:40:17.496Z,100339.47
2022-07-28T04:42:47.389Z,100331.88
2022-07-28T04:45:15.617Z,100330.53
2022-07-28T04:47:44.017Z,100335.47
2022-07-28T04:50:15.321Z,100333.47
2022-07-28T04:52:43.623Z,100336.53
2022-07-28T04:55:12.016Z,100333.16
2022-07-28T04:57:40.275Z,100330.66
2022-07-28T05:00:13.566Z,100333.34
2022-07-28T05:02:42.571Z,100332.47
2022-07-28T05:05:11.167Z,100328.94
2022-07-28T05:07:39.553Z,100332.47
2022-07-28T05:10:08.517Z,100333.16
2022-07-28T05:12:36.646Z,100334.66
2022-07-28T05:15:06.846Z,100340.19
2022-07-28T05:17:37.222Z,100332.63
2022-07-28T05:20:06.042Z,100346.50
2022-07-28T05:22:42.479Z,100336.63
2022-07-28T05:25:14.604Z,100338.06
2022-07-28T05:27:42.965Z,100345.75
2022-07-28T05:30:11.643Z,100344.03
2022-07-28T05:32:45.320Z,100347.69
2022-07-28T05:35:13.612Z,100344.59
2022-07-28T05:37:41.781Z,100342.25
2022-07-28T05:40:11.009Z,100330.19
2022-07-28T05:42:40.166Z,100330.16
2022-07-28T05:45:14.987Z,100323.72
2022-07-28T05:47:47.409Z,100323.97
2022-07-28T05:50:15.996Z,100320.13
2022-07-28T05:52:44.189Z,100314.53
2022-07-28T05:55:12.316Z,100319.78
2022-07-28T05:57:41.021Z,100321.63
2022-07-28T06:00:10.402Z,100323.09
2022-07-28T06:02:41.603Z,100327.50
2022-07-28T06:05:12.417Z,100308.91
2022-07-28T06:07:42.788Z,100316.34
2022-07-28T06:10:13.086Z,100312.91
2022-07-28T06:12:42.161Z,100313.16
2022-07-28T06:15:13.651Z,100302.28
2022-07-28T06:17:42.328Z,100306.25
2022-07-28T06:20:13.160Z,100308.13
2022-07-28T06:22:44.860Z,100304.00
2022-07-28T06:25:14.048Z,100305.03
2022-07-28T06:27:42.358Z,100301.50
2022-07-28T06:30:10.872Z,100300.84
2022-07-28T06:32:39.232Z,100301.50
2022-07-28T06:35:26.423Z,100303.88
2022-07-28T06:37:54.949Z,100305.09
2022-07-28T06:40:23.330Z,100299.59
2022-07-28T06:42:51.929Z,100306.19
2022-07-28T06:45:21.826Z,100303.81
2022-07-28T06:47:50.524Z,100310.97
2022-07-28T06:50:24.888Z,100307.69
2022-07-28T06:52:56.857Z,100301.72
2022-07-28T06:55:54.351Z,100302.63
2022-07-28T06:58:22.379Z,100305.00
2022-07-28T07:00:50.611Z,100304.56
2022-07-28T07:03:18.979Z,100302.28
2022-07-28T07:05:49.093Z,100301.09
2022-07-28T07:08:30.296Z,100301.59
2022-07-28T07:10:58.520Z,100297.81
2022-07-28T07:13:26.993Z,100296.03
2022-07-28T07:15:55.206Z,100300.31
2022-07-28T07:18:23.517Z,100300.13
2022-07-28T07:20:51.705Z,100295.50
2022-07-28T07:23:19.767Z,100297.28
2022-07-28T07:25:49.319Z,100292.81
2022-07-28T07:28:17.591Z,100296.41
2022-07-28T07:30:45.822Z,100300.78
2022-07-28T07:33:14.045Z,100299.53
2022-07-28T07:35:42.234Z,100305.47
2022-07-28T07:38:10.349Z,100297.00
2022-07-28T07:40:38.509Z,100296.53
2022-07-28T07:43:08.735Z,100293.91
2022-07-28T07:45:38.816Z,100287.78
2022-07-28T07:48:07.424Z,100295.63
2022-07-28T07:50:35.736Z,100286.38
2022-07-28T07:53:04.173Z,100294.66
2022-07-28T07:55:34.446Z,100299.34
2022-07-28T07:58:06.723Z,100289.97
2022-07-28T08:00:36.485Z,100290.97
2022-07-28T08:03:04.614Z,100294.56
2022-07-28T08:05:42.611Z,100296.09
2022-07-28T08:08:10.972Z,100293.31
2022-07-28T08:10:39.751Z,100297.53
2022-07-28T08:13:08.346Z,100297.72
2022-07-28T08:15:37.938Z,100300.31
2022-07-28T08:18:06.046Z,100303.94
2022-07-28T08:20:34.497Z,100294.88
2022-07-28T08:23:02.941Z,100291.22
2022-07-28T08:25:31.958Z,100301.06
2022-07-28T08:28:00.154Z,100300.53
2022-07-28T08:30:50.180Z,100294.94
2022-07-28T08:33:22.001Z,100290.06
2022-07-28T08:35:50.676Z,100294.78
2022-07-28T08:38:20.165Z,100292.50
2022-07-28T08:40:50.530Z,100283.88
2022-07-28T08:43:25.122Z,100280.75
2022-07-28T08:45:58.496Z,100283.94
2022-07-28T08:48:28.559Z,100281.78
2022-07-28T08:50:57.722Z,100285.13
2022-07-28T08:53:26.048Z,100286.53
2022-07-28T08:55:54.519Z,100286.06
2022-07-28T08:58:23.672Z,100282.31
2022-07-28T09:00:51.930Z,100280.78
2022-07-28T09:03:21.754Z,100285.94
2022-07-28T09:05:50.486Z,100278.28
2022-07-28T09:08:19.047Z,100285.34
2022-07-28T09:10:47.223Z,100283.69
2022-07-28T09:13:15.654Z,100278.28
2022-07-28T09:15:44.718Z,100281.81
2022-07-28T09:18:12.913Z,100274.91
2022-07-28T09:20:43.477Z,100278.66
2022-07-28T09:23:41.826Z,100279.66
2022-07-28T09:26:10.982Z,100286.22
2022-07-28T09:28:50.327Z,100270.38
2022-07-28T09:31:19.010Z,100273.06
2022-07-28T09:33:57.662Z,100266.97
2022-07-28T09:36:27.177Z,100275.34
2022-07-28T09:38:56.765Z,100274.84
2022-07-28T09:41:25.058Z,100263.63
2022-07-28T09:43:55.791Z,100264.16
2022-07-28T09:46:26.202Z,100259.63
2022-07-28T09:48:58.733Z,100264.13
2022-07-28T09:51:29.228Z,100260.78
2022-07-28T09:54:07.844Z,100265.38
2022-07-28T09:56:35.963Z,100268.47
2022-07-28T09:59:04.775Z,100267.56
2022-07-28T10:01:37.040Z,100262.94
2022-07-28T10:04:05.610Z,100258.34
2022-07-28T10:06:37.883Z,100257.09
2022-07-28T10:09:08.043Z,100253.78
2022-07-28T10:11:41.414Z,100255.66
2022-07-28T10:14:09.989Z,100254.06
2022-07-28T10:16:53.579Z,100252.13
2022-07-28T10:19:21.898Z,100255.66
2022-07-28T10:21:55.763Z,100252.25
2022-07-28T10:24:24.154Z,100251.44
2022-07-28T10:26:53.738Z,100247.03
2022-07-28T10:29:22.602Z,100257.31
2022-07-28T10:31:52.699Z,100248.28
2022-07-28T10:34:24.622Z,100251.88
2022-07-28T10:36:55.998Z,100256.81
2022-07-28T10:39:25.195Z,100257.31
2022-07-28T10:41:54.277Z,100242.84
2022-07-28T10:44:24.097Z,100250.94
2022-07-28T10:46:53.423Z,100253.53
2022-07-28T10:49:22.407Z,100251.53
2022-07-28T10:52:02.408Z,100248.66
2022-07-28T10:54:36.138Z,100252.44
2022-07-28T10:57:09.132Z,100250.03
2022-07-28T10:59:45.775Z,100251.84
2022-07-28T11:02:28.992Z,100257.63
2022-07-28T11:05:02.032Z,100252.13
2022-07-28T11:07:40.815Z,100260.44
2022-07-28T11:10:18.212Z,100255.47
2022-07-28T11:12:47.751Z,100253.97
2022-07-28T11:15:27.072Z,100258.28
2022-07-28T11:18:04.161Z,100259.44
2022-07-28T11:20:50.874Z,100255.00
2022-07-28T11:23:37.373Z,100250.28
2022-07-28T11:26:24.280Z,100249.69
2022-07-28T11:29:11.140Z,100241.81
2022-07-28T11:32:13.199Z,100249.66
2022-07-28T11:34:56.500Z,100253.25
2022-07-28T11:37:26.058Z,100256.63
2022-07-28T11:39:54.142Z,100243.31
2022-07-28T11:42:25.924Z,100249.44
2022-07-28T11:44:54.515Z,100240.75
2022-07-28T11:47:23.171Z,100240.53
2022-07-28T11:50:06.119Z,100236.94
2022-07-28T11:52:35.961Z,100235.00
2022-07-28T11:55:05.277Z,100240.06
2022-07-28T11:57:41.459Z,100247.03
2022-07-28T12:00:10.604Z,100242.38
2022-07-28T12:02:41.999Z,100247.25
2022-07-28T12:05:11.958Z,100245.28
2022-07-28T12:07:42.991Z,100246.94
2022-07-28T12:10:55.351Z,100251.34
2022-07-28T12:13:28.922Z,100248.25
2022-07-28T12:15:57.190Z,100247.22
2022-07-28T12:18:25.550Z,100256.63
2022-07-28T12:20:55.594Z,100253.34
2022-07-28T12:23:44.097Z,100258.16
2022-07-28T12:26:31.454Z,100251.91
2022-07-28T12:29:00.290Z,100250.50
2022-07-28T12:31:33.486Z,100252.34
2022-07-28T12:34:03.115Z,100255.81
2022-07-28T12:36:31.455Z,100251.09
2022-07-28T12:39:07.269Z,100245.19
2022-07-28T12:41:41.063Z,100238.63
2022-07-28T12:44:09.126Z,100240.28
2022-07-28T12:46:37.372Z,100235.56
2022-07-28T12:49:05.494Z,100230.81
2022-07-28T12:51:35.933Z,100240.44
2022-07-28T12:54:07.115Z,100236.72
2022-07-28T12:56:45.171Z,100238.09
2022-07-28T12:59:13.888Z,100239.97
2022-07-28T13:01:45.533Z,100242.09
2022-07-28T13:04:15.265Z,100237.34
2022-07-28T13:06:43.724Z,100244.94
2022-07-28T13:09:22.411Z,100243.81
2022-07-28T13:11:52.771Z,100242.22
2022-07-28T13:14:36.418Z,100239.00
2022-07-28T13:17:04.666Z,100245.94
2022-07-28T13:19:32.821Z,100241.47
2022-07-28T13:22:05.447Z,100236.56
2022-07-28T13:24:47.025Z,100241.16
2022-07-28T13:27:15.501Z,100242.31
2022-07-28T13:29:43.584Z,100249.81
2022-07-28T13:32:12.005Z,100248.34
2022-07-28T13:34:40.234Z,100251.75
2022-07-28T13:37:09.422Z,100257.84
2022-07-28T13:39:37.682Z,100247.91
2022-07-28T13:42:32.259Z,100252.66
2022-07-28T13:45:05.403Z,100253.34
2022-07-28T13:47:38.763Z,100260.44
2022-07-28T13:50:09.831Z,100256.16
2022-07-28T13:52:39.666Z,100255.47
2022-07-28T13:55:09.479Z,100270.00
2022-07-28T13:57:43.083Z,100265.31
2022-07-28T14:00:12.052Z,100269.84
2022-07-28T14:02:44.054Z,100263.19
2022-07-28T14:05:13.108Z,100268.72
2022-07-28T14:07:41.278Z,100270.13
2022-07-28T14:10:11.245Z,100263.19
2022-07-28T14:12:47.227Z,100265.72
2022-07-28T14:15:15.668Z,100273.97
2022-07-28T14:17:45.972Z,100272.28
2022-07-28T14:20:15.016Z,100277.31
2022-07-28T14:22:43.207Z,100272.84
2022-07-28T14:25:11.803Z,100272.00
2022-07-28T14:27:49.598Z,100273.72
2022-07-28T14:30:18.221Z,100273.44
2022-07-28T14:32:46.459Z,100270.66
2022-07-28T14:35:14.693Z,100275.00
2022-07-28T14:40:32.112Z,100277.78
2022-07-28T14:43:03.727Z,100270.31
2022-07-28T14:45:32.074Z,100265.09
2022-07-28T14:48:20.084Z,100267.88
2022-07-28T14:50:48.589Z,100266.81
2022-07-28T14:53:17.362Z,100265.72
2022-07-28T14:55:45.787Z,100259.00
2022-07-28T14:58:15.269Z,100266.22
2022-07-28T15:00:43.469Z,100254.53
2022-07-28T15:03:11.913Z,100257.25
2022-07-28T15:05:40.037Z,100252.28
2022-07-28T15:08:10.174Z,100256.78
2022-07-28T15:10:38.703Z,100259.03
2022-07-28T15:13:06.950Z,100251.34
2022-07-28T15:15:44.390Z,100245.81
2022-07-28T15:18:12.973Z,100245.75
2022-07-28T15:20:43.385Z,100245.75
2022-07-28T15:23:11.817Z,100252.38
2022-07-28T15:25:40.067Z,100247.66
2022-07-28T15:28:08.421Z,100249.56
2022-07-28T15:30:40.241Z,100245.16
2022-07-28T15:33:19.706Z,100247.34
2022-07-28T15:35:58.485Z,100236.84
2022-07-28T15:38:28.193Z,100242.34
2022-07-28T15:40:58.760Z,100242.72
2022-07-28T15:43:27.027Z,100241.28
2022-07-28T15:45:56.186Z,100244.09
2022-07-28T15:48:26.278Z,100249.38
2022-07-28T15:50:54.421Z,100246.09
2022-07-28T15:53:22.645Z,100246.09
2022-07-28T15:55:51.782Z,100243.06
2022-07-28T15:58:20.408Z,100247.72
2022-07-28T16:00:48.829Z,100249.66
2022-07-28T16:03:17.285Z,100250.94
2022-07-28T16:05:49.638Z,100252.50
2022-07-28T16:08:18.243Z,100254.28
2022-07-28T16:10:51.597Z,100263.22
2022-07-28T16:13:32.173Z,100264.66
2022-07-28T16:16:06.539Z,100272.63
2022-07-28T16:18:38.050Z,100269.53
2022-07-28T16:21:10.566Z,100277.56
2022-07-28T16:23:43.903Z,100277.28
2022-07-28T16:26:15.101Z,100271.59
2022-07-28T16:28:43.530Z,100277.28
2022-07-28T16:31:16.948Z,100274.88
2022-07-28T16:33:46.337Z,100296.81
2022-07-28T16:36:16.421Z,100286.66
2022-07-28T16:38:45.018Z,100286.50
2022-07-28T16:41:16.178Z,100293.44
2022-07-28T16:43:44.896Z,100295.16
2022-07-28T16:46:14.590Z,100292.91
2022-07-28T16:48:43.236Z,100289.72
2022-07-28T16:51:39.169Z,100300.28
2022-07-28T16:54:08.092Z,100297.91
2022-07-28T16:56:36.983Z,100295.84
2022-07-28T16:59:06.082Z,100295.03
2022-07-28T17:01:34.412Z,100300.03
2022-07-28T17:04:03.399Z,100302.78
2022-07-28T17:06:32.544Z,100299.94
2022-07-28T17:09:02.456Z,100305.31
2022-07-28T17:11:31.093Z,100301.66
2022-07-28T17:13:59.597Z,100303.34
2022-07-28T17:16:27.776Z,100311.03
2022-07-28T17:18:56.106Z,100309.97
2022-07-28T17:21:27.874Z,100309.78
2022-07-28T17:23:56.544Z,100313.59
2022-07-28T17:27:32.395Z,100320.34
2022-07-28T17:29:17.393Z,100315.69
2022-07-28T17:31:46.582Z,100314.66
2022-07-28T17:34:15.376Z,100315.41
2022-07-28T17:36:45.702Z,100312.66
2022-07-28T17:39:14.643Z,100311.38
2022-07-28T17:41:44.313Z,100315.25
2022-07-28T17:44:13.075Z,100313.97
2022-07-28T17:46:42.990Z,100308.72
2022-07-28T17:49:11.702Z,100307.16
2022-07-28T17:51:39.962Z,100312.78
2022-07-28T17:54:08.450Z,100308.25
2022-07-28T17:56:39.281Z,100311.03
2022-07-28T17:59:09.516Z,100305.88
2022-07-28T18:01:42.300Z,100315.56
2022-07-28T18:04:14.133Z,100316.41
2022-07-28T18:06:44.695Z,100312.22
2022-07-28T18:09:12.770Z,100322.56
2022-07-28T18:11:57.217Z,100316.72
2022-07-28T18:14:29.460Z,100329.22
2022-07-28T18:16:58.299Z,100329.47
2022-07-28T18:19:27.050Z,100336.25
2022-07-28T18:21:56.011Z,100326.22
2022-07-28T18:24:24.766Z,100330.88
2022-07-28T18:26:53.302Z,100336.72
2022-07-28T18:29:22.385Z,100333.25
2022-07-28T18:31:53.252Z,100329.84
2022-07-28T18:34:24.843Z,100336.97
2022-07-28T18:36:53.828Z,100328.53
2022-07-28T18:39:22.630Z,100331.44
2022-07-28T18:41:50.839Z,100329.25
2022-07-28T18:44:20.226Z,100324.97
2022-07-28T18:46:48.993Z,100329.78
2022-07-28T18:49:20.118Z,100330.94
2022-07-28T18:51:49.935Z,100336.09
2022-07-28T18:54:27.637Z,100331.31
2022-07-28T18:56:56.410Z,100339.91
2022-07-28T18:59:24.785Z,100334.06
2022-07-28T19:01:53.194Z,100343.63
2022-07-28T19:04:31.451Z,100342.53
2022-07-28T19:06:59.581Z,100339.78
2022-07-28T19:09:27.913Z,100341.97
2022-07-28T19:12:19.589Z,100342.53
2022-07-28T19:14:47.876Z,100337.69
2022-07-28T19:17:15.932Z,100347.78
2022-07-28T19:19:45.770Z,100344.00
2022-07-28T19:22:13.945Z,100346.97
2022-07-28T19:24:42.143Z,100352.06
2022-07-28T19:27:11.765Z,100350.66
2022-07-28T19:29:40.058Z,100347.53
2022-07-28T19:32:08.938Z,100345.03
2022-07-28T19:34:37.245Z,100348.94
2022-07-28T19:37:06.873Z,100350.72
2022-07-28T19:39:35.575Z,100351.19
2022-07-28T19:42:04.099Z,100345.53
2022-07-28T19:44:32.454Z,100346.59
2022-07-28T19:47:02.405Z,100346.72
2022-07-28T19:49:52.108Z,100347.72
2022-07-28T19:52:28.632Z,100354.56
2022-07-28T19:55:05.959Z,100362.28
2022-07-28T19:57:37.491Z,100360.66
2022-07-28T20:00:10.201Z,100357.00
2022-07-28T20:02:47.840Z,100363.38
2022-07-28T20:05:22.193Z,100365.50
2022-07-28T20:07:58.468Z,100372.28
2022-07-28T20:10:28.084Z,100377.84
2022-07-28T20:13:01.334Z,100379.19
2022-07-28T20:15:36.373Z,100385.09
2022-07-28T20:18:11.818Z,100387.06
2022-07-28T20:20:46.115Z,100383.09
2022-07-28T20:23:21.176Z,100398.97
2022-07-28T20:25:54.249Z,100396.91
2022-07-28T20:28:24.757Z,100401.16
2022-07-28T20:30:53.723Z,100403.09
2022-07-28T20:33:23.409Z,100401.00
2022-07-28T20:35:53.469Z,100408.63
2022-07-28T20:38:24.453Z,100422.16
2022-07-28T20:40:53.213Z,100421.75
2022-07-28T20:43:21.478Z,100419.06
2022-07-28T20:45:50.013Z,100424.53
2022-07-28T20:48:18.671Z,100426.25
2022-07-28T20:50:47.455Z,100421.03
2022-07-28T20:53:16.047Z,100420.00
2022-07-28T20:55:45.790Z,100427.78
2022-07-28T20:58:14.485Z,100432.44
2022-07-28T21:00:43.328Z,100426.97
2022-07-28T21:03:12.032Z,100438.75
2022-07-28T21:05:40.960Z,100439.81
2022-07-28T21:08:16.317Z,100442.78
2022-07-28T21:10:48.097Z,100447.16
2022-07-28T21:13:16.617Z,100447.16
2022-07-28T21:15:45.222Z,100437.91
2022-07-28T21:18:13.781Z,100446.13
2022-07-28T21:20:42.201Z,100448.84
2022-07-28T21:23:10.844Z,100452.25
2022-07-28T21:25:39.089Z,100448.66
2022-07-28T21:28:26.850Z,100453.06
2022-07-28T21:30:55.545Z,100452.47
2022-07-28T21:33:24.065Z,100446.34
2022-07-28T21:35:52.471Z,100444.66
2022-07-28T21:38:20.699Z,100448.28
2022-07-28T21:40:48.947Z,100455.25
2022-07-28T21:43:18.729Z,100455.06
2022-07-28T21:45:48.008Z,100446.66
2022-07-28T21:48:19.233Z,100458.63
2022-07-28T21:50:47.434Z,100453.38
2022-07-28T21:53:17.365Z,100449.19
2022-07-28T21:55:46.296Z,100456.56
2022-07-28T21:58:15.032Z,100456.16
2022-07-28T22:00:45.469Z,100452.34
2022-07-28T22:03:14.244Z,100443.75
2022-07-28T22:05:43.223Z,100447.75
2022-07-28T22:08:11.834Z,100450.28
2022-07-28T22:10:40.204Z,100446.50
2022-07-28T22:13:10.692Z,100452.41
2022-07-28T22:15:39.364Z,100461.22
2022-07-28T22:18:13.399Z,100455.16
2022-07-28T22:20:44.633Z,100453.66
2022-07-28T22:23:29.373Z,100438.53
2022-07-28T22:25:58.645Z,100440.66
2022-07-28T22:28:29.485Z,100441.06
2022-07-28T22:31:08.944Z,100438.75
2022-07-28T22:33:40.465Z,100439.63
2022-07-28T22:36:09.233Z,100442.34
2022-07-28T22:38:38.557Z,100438.97
2022-07-28T22:41:07.045Z,100442.34
2022-07-28T22:43:35.933Z,100439.44
2022-07-28T22:46:04.314Z,100433.97
2022-07-28T22:48:33.286Z,100438.56
2022-07-28T22:51:03.494Z,100435.00
2022-07-28T22:53:31.690Z,100434.59
2022-07-28T22:58:47.095Z,100429.34
2022-07-28T23:01:15.990Z,100429.34
2022-07-28T23:03:45.050Z,100426.00
2022-07-28T23:06:18.176Z,100431.03
2022-07-28T23:08:46.440Z,100441.53
2022-07-28T23:11:15.602Z,100441.97
2022-07-28T23:13:44.229Z,100438.59
2022-07-28T23:16:15.188Z,100444.03
2022-07-28T23:18:44.170Z,100441.53
2022-07-28T23:21:13.376Z,100439.41
2022-07-28T23:23:43.168Z,100445.53
2022-07-28T23:26:11.400Z,100448.66
2022-07-28T23:28:39.823Z,100457.91
2022-07-28T23:31:08.298Z,100456.44
2022-07-28T23:33:55.469Z,100454.97
2022-07-28T23:36:26.423Z,100455.78
2022-07-28T23:38:57.488Z,100446.56
2022-07-28T23:41:26.650Z,100446.56
2022-07-28T23:43:54.796Z,100462.13
2022-07-28T23:46:23.154Z,100464.63
2022-07-28T23:48:52.342Z,100466.94
2022-07-28T23:51:21.323Z,100471.75
2022-07-28T23:53:54.365Z,100468.38
2022-07-28T23:56:25.993Z,100467.97
2022-07-28T23:58:54.282Z,100465.47
